Championnat de France Longue Distance (WRE) Claudon (88) - T

Date : 23/08/2026
Couleur : Jaune
Distance : 4,490 km
Valeur du circuit : 6027293 point × seconde

Place Nom Licence Catégorie Club Temps min/km CN à J-15 Valeur Points Différence Nouveau CN
1 BALEYDIER Clémence 42067 D14 4302AR 0:33:28 7'27 4239 8511912 3002 -1237 4346
2 DARRIEUTORT Léna 47109 D14 0109AR 0:36:34 8'08 2328 5107632 2747 +419 2409
3 GARCIA Eline 36100 D14 0705AR 0:45:11 10'03 1988 5389468 2223 +235 2026
4 OGIER Erin 41959 D14 4203AR 0:46:51 10'26 1991 5596701 2144 +153 1998
5 COUMAU Jeanne 41989 D14 4709NA 0:49:18 10'58 1876 5549208 2038 +162 1986
6 HUBAC Noélie 40670 D14 0703AR 0:50:00 11'08 2211 6633000 2009 -202 2213
7 BONNIN Maëlle 44004 D14 3318NA 0:50:13 11'11 1733 5221529 2000 +267 1734
8 FOUCHIER Cloé 42664 D14 1303PZ 0:50:54 11'20 1727 5274258 1974 +247 1823
9 GAFFURI Pauline 38224 D14 5703GE 0:52:12 11'37 2069 6480108 1924 -145 1997
10 CHAMBON Marilou 38143 D14 1303PZ 0:55:48 12'25 1666 5577768 1800 +134 1920
11 MILEO Adèle 40789 D14 7605NM 0:58:17 12'58 1683 5885451 1724 +41 1748
12 MOREY Louise 36431 D14 7716IF 0:59:04 13'09 1572 5571168 1701 +129 1590
13 PARISOT Florine 40690 D14 0207HF 0:59:55 13'20 1687 6064765 1677 -10 1738
14 CHANDEZON Melusine 35327 D14 2105BF 1:02:51 13'59 1851 6980121 1598 -253 1859
15 JOUANILLOU Alix 42272 D14 3108OC 1:03:02 14'02 1530 5786460 1594 +64 1578
16 LEDROIT Anaïs 40993 D14 0615PZ 1:03:25 14'07 1789 6807145 1584 -205 1885
17 GRUOT Rose 44562 D14 2105BF 1:06:05 14'43 1825 1520 -305 1825
18 BARBIER Clélia 46464 D14 9105IF 1:07:15 14'58 1512 1494 -18 1531
19 DEWILDE Daphné 41372 D14 5907HF 1:07:42 15'04 1794 1484 -310 1767
20 BALEYDIER Adèle 40850 D14 6911AR 1:07:49 15'06 1291 1481 +190 1370
21 GARDE Alena 36356 D14 4203AR 1:09:21 15'26 1555 1449 -106 1564
22 FAURE Orlane 40503 D14 0703AR 1:15:18 16'46 1739 1334 -405 1739
23 BERNARD Mathilde 39519 D14 2517BF 1:18:03 17'22 1462 1287 -175 1462
24 MACLE Line 48686 D14 2517BF 1:30:45 20'12 1443 1107 -336 1394
SANT Anaïs 32806 D14 1905NA pm None 1096 0 1017